sensor_id;sensor_type;location;lat;lon;timestamp;pressure;altitude;pressure_sealevel;temperature;humidity
69035;BME280;56091;55.756;37.412;2023-04-02T00:03:06;98334.94;;;6.10;93.94
69035;BME280;56091;55.756;37.412;2023-04-02T00:08:37;98337.94;;;6.14;93.23
69035;BME280;56091;55.756;37.412;2023-04-02T00:13:40;98342.63;;;6.23;91.86
69035;BME280;56091;55.756;37.412;2023-04-02T00:18:45;98355.53;;;6.27;91.02
69035;BME280;56091;55.756;37.412;2023-04-02T00:23:48;98355.88;;;6.35;91.41
69035;BME280;56091;55.756;37.412;2023-04-02T00:28:50;98362.31;;;6.34;90.20
69035;BME280;56091;55.756;37.412;2023-04-02T00:33:56;98346.16;;;6.29;90.25
69035;BME280;56091;55.756;37.412;2023-04-02T00:38:59;98366.97;;;6.44;89.35
69035;BME280;56091;55.756;37.412;2023-04-02T00:44:01;98372.16;;;6.51;89.26
69035;BME280;56091;55.756;37.412;2023-04-02T00:49:16;98373.28;;;6.55;88.67
69035;BME280;56091;55.756;37.412;2023-04-02T00:54:22;98375.63;;;6.51;88.51
69035;BME280;56091;55.756;37.412;2023-04-02T00:59:31;98367.38;;;6.58;88.97
69035;BME280;56091;55.756;37.412;2023-04-02T01:04:35;98374.06;;;6.55;88.30
69035;BME280;56091;55.756;37.412;2023-04-02T01:14:44;98378.41;;;6.61;88.17
69035;BME280;56091;55.756;37.412;2023-04-02T01:25:13;98377.00;;;6.54;87.87
69035;BME280;56091;55.756;37.412;2023-04-02T01:30:18;98367.09;;;6.54;87.56
69035;BME280;56091;55.756;37.412;2023-04-02T01:35:20;98358.31;;;6.59;87.33
69035;BME280;56091;55.756;37.412;2023-04-02T01:40:39;98377.16;;;6.69;87.30
69035;BME280;56091;55.756;37.412;2023-04-02T01:45:48;98367.28;;;6.70;86.87
69035;BME280;56091;55.756;37.412;2023-04-02T01:50:51;98369.44;;;6.73;86.75
69035;BME280;56091;55.756;37.412;2023-04-02T01:55:59;98362.19;;;6.73;86.26
69035;BME280;56091;55.756;37.412;2023-04-02T02:01:05;98359.03;;;6.76;86.43
69035;BME280;56091;55.756;37.412;2023-04-02T02:06:14;98362.75;;;6.75;86.51
69035;BME280;56091;55.756;37.412;2023-04-02T02:11:19;98369.75;;;6.76;86.06
69035;BME280;56091;55.756;37.412;2023-04-02T02:16:21;98372.06;;;6.68;85.76
69035;BME280;56091;55.756;37.412;2023-04-02T02:26:33;98376.44;;;6.74;85.84
69035;BME280;56091;55.756;37.412;2023-04-02T02:31:37;98375.59;;;6.73;85.57
69035;BME280;56091;55.756;37.412;2023-04-02T02:36:42;98375.66;;;6.78;85.26
69035;BME280;56091;55.756;37.412;2023-04-02T02:57:34;98390.56;;;6.69;84.67
69035;BME280;56091;55.756;37.412;2023-04-02T03:02:38;98395.50;;;6.77;84.54
69035;BME280;56091;55.756;37.412;2023-04-02T03:07:43;98392.31;;;6.80;84.38
69035;BME280;56091;55.756;37.412;2023-04-02T03:23:35;98393.69;;;6.83;83.02
69035;BME280;56091;55.756;37.412;2023-04-02T03:28:41;98415.47;;;6.92;82.71
69035;BME280;56091;55.756;37.412;2023-04-02T03:33:48;98408.34;;;7.02;82.00
69035;BME280;56091;55.756;37.412;2023-04-02T03:39:00;98408.69;;;7.11;81.37
69035;BME280;56091;55.756;37.412;2023-04-02T03:44:11;98410.88;;;7.14;80.91
69035;BME280;56091;55.756;37.412;2023-04-02T03:49:30;98406.06;;;7.16;80.34
69035;BME280;56091;55.756;37.412;2023-04-02T03:54:37;98392.13;;;7.14;79.91
69035;BME280;56091;55.756;37.412;2023-04-02T03:59:53;98408.28;;;7.24;79.59
69035;BME280;56091;55.756;37.412;2023-04-02T04:04:57;98409.44;;;7.34;78.79
69035;BME280;56091;55.756;37.412;2023-04-02T04:09:59;98398.13;;;7.27;78.34
69035;BME280;56091;55.756;37.412;2023-04-02T04:20:24;98410.28;;;7.34;77.69
69035;BME280;56091;55.756;37.412;2023-04-02T04:25:29;98430.97;;;7.39;77.32
69035;BME280;56091;55.756;37.412;2023-04-02T04:30:48;98434.56;;;7.50;76.77
69035;BME280;56091;55.756;37.412;2023-04-02T04:35:55;98434.59;;;7.55;75.85
69035;BME280;56091;55.756;37.412;2023-04-02T04:46:16;98420.69;;;8.00;73.75
69035;BME280;56091;55.756;37.412;2023-04-02T04:51:41;98449.91;;;8.34;71.97
69035;BME280;56091;55.756;37.412;2023-04-02T04:56:50;98448.22;;;8.18;72.29
69035;BME280;56091;55.756;37.412;2023-04-02T05:02:07;98428.44;;;7.92;72.30
69035;BME280;56091;55.756;37.412;2023-04-02T05:07:20;98434.41;;;7.99;72.78
69035;BME280;56091;55.756;37.412;2023-04-02T05:23:03;98453.56;;;8.13;72.08
69035;BME280;56091;55.756;37.412;2023-04-02T05:28:14;98454.66;;;8.17;71.80
69035;BME280;56091;55.756;37.412;2023-04-02T05:33:29;98459.47;;;8.15;71.27
69035;BME280;56091;55.756;37.412;2023-04-02T05:38:37;98465.44;;;8.22;71.30
69035;BME280;56091;55.756;37.412;2023-04-02T05:43:44;98459.31;;;8.32;70.72
69035;BME280;56091;55.756;37.412;2023-04-02T05:48:49;98461.50;;;8.35;70.49
69035;BME280;56091;55.756;37.412;2023-04-02T05:53:54;98464.81;;;8.47;69.93
69035;BME280;56091;55.756;37.412;2023-04-02T05:59:13;98441.13;;;8.44;69.07
69035;BME280;56091;55.756;37.412;2023-04-02T06:09:32;98465.66;;;8.53;69.10
69035;BME280;56091;55.756;37.412;2023-04-02T06:14:36;98475.94;;;8.66;68.64
69035;BME280;56091;55.756;37.412;2023-04-02T06:19:38;98474.09;;;8.77;68.15
69035;BME280;56091;55.756;37.412;2023-04-02T06:24:40;98424.63;;;8.73;67.06
69035;BME280;56091;55.756;37.412;2023-04-02T06:29:43;98477.22;;;9.16;65.93
69035;BME280;56091;55.756;37.412;2023-04-02T06:34:49;98469.34;;;9.05;66.64
69035;BME280;56091;55.756;37.412;2023-04-02T06:39:51;98454.03;;;9.05;66.15
69035;BME280;56091;55.756;37.412;2023-04-02T06:44:53;98447.06;;;9.19;65.49
69035;BME280;56091;55.756;37.412;2023-04-02T07:01:23;98470.84;;;9.89;62.87
69035;BME280;56091;55.756;37.412;2023-04-02T07:06:25;98481.59;;;10.10;62.06
69035;BME280;56091;55.756;37.412;2023-04-02T07:11:31;98476.78;;;10.02;62.68
69035;BME280;56091;55.756;37.412;2023-04-02T07:16:35;98489.69;;;9.74;63.00
69035;BME280;56091;55.756;37.412;2023-04-02T07:21:36;98496.38;;;9.51;63.31
69035;BME280;56091;55.756;37.412;2023-04-02T07:26:37;98489.06;;;9.31;64.00
69035;BME280;56091;55.756;37.412;2023-04-02T07:31:38;98508.47;;;9.28;64.50
69035;BME280;56091;55.756;37.412;2023-04-02T07:36:40;98509.22;;;9.18;64.42
69035;BME280;56091;55.756;37.412;2023-04-02T07:41:58;98515.91;;;9.10;64.34
69035;BME280;56091;55.756;37.412;2023-04-02T07:46:59;98509.00;;;9.30;63.77
69035;BME280;56091;55.756;37.412;2023-04-02T07:52:00;98513.09;;;9.68;62.52
69035;BME280;56091;55.756;37.412;2023-04-02T07:57:01;98506.66;;;10.21;61.77
69035;BME280;56091;55.756;37.412;2023-04-02T08:02:02;98513.66;;;10.47;60.37
69035;BME280;56091;55.756;37.412;2023-04-02T08:07:03;98513.38;;;10.18;60.47
69035;BME280;56091;55.756;37.412;2023-04-02T08:12:04;98524.44;;;10.06;60.91
69035;BME280;56091;55.756;37.412;2023-04-02T08:17:05;98504.75;;;9.95;61.23
69035;BME280;56091;55.756;37.412;2023-04-02T08:22:06;98508.28;;;9.91;61.44
69035;BME280;56091;55.756;37.412;2023-04-02T08:27:09;98520.41;;;10.04;61.75
69035;BME280;56091;55.756;37.412;2023-04-02T08:32:17;98532.25;;;9.87;62.33
69035;BME280;56091;55.756;37.412;2023-04-02T08:37:17;98510.44;;;9.73;62.81
69035;BME280;56091;55.756;37.412;2023-04-02T08:47:38;98516.59;;;9.84;62.83
69035;BME280;56091;55.756;37.412;2023-04-02T08:52:40;98498.31;;;9.91;62.52
69035;BME280;56091;55.756;37.412;2023-04-02T08:58:01;98522.28;;;9.88;62.71
69035;BME280;56091;55.756;37.412;2023-04-02T09:03:20;98516.09;;;9.77;63.30
69035;BME280;56091;55.756;37.412;2023-04-02T09:08:24;98518.25;;;9.85;63.16
69035;BME280;56091;55.756;37.412;2023-04-02T09:13:29;98527.16;;;10.11;62.45
69035;BME280;56091;55.756;37.412;2023-04-02T09:18:31;98506.91;;;9.73;63.43
69035;BME280;56091;55.756;37.412;2023-04-02T09:23:32;98522.56;;;9.81;63.76
69035;BME280;56091;55.756;37.412;2023-04-02T09:28:36;98529.81;;;9.81;63.78
69035;BME280;56091;55.756;37.412;2023-04-02T09:33:48;98530.34;;;9.72;64.35
69035;BME280;56091;55.756;37.412;2023-04-02T09:39:00;98531.44;;;9.71;64.37
69035;BME280;56091;55.756;37.412;2023-04-02T09:44:23;98539.50;;;9.76;64.11
69035;BME280;56091;55.756;37.412;2023-04-02T09:49:27;98541.41;;;9.81;64.05
69035;BME280;56091;55.756;37.412;2023-04-02T09:54:32;98536.00;;;9.91;63.96
69035;BME280;56091;55.756;37.412;2023-04-02T09:59:32;98542.50;;;9.90;64.17
69035;BME280;56091;55.756;37.412;2023-04-02T10:09:37;98539.56;;;10.33;62.76
69035;BME280;56091;55.756;37.412;2023-04-02T10:14:40;98536.84;;;10.43;62.35
69035;BME280;56091;55.756;37.412;2023-04-02T10:19:57;98530.03;;;10.71;61.47
69035;BME280;56091;55.756;37.412;2023-04-02T10:24:58;98528.63;;;10.94;60.94
69035;BME280;56091;55.756;37.412;2023-04-02T10:30:17;98530.97;;;11.17;60.16
69035;BME280;56091;55.756;37.412;2023-04-02T10:41:01;98523.06;;;11.80;58.08
69035;BME280;56091;55.756;37.412;2023-04-02T10:56:41;98516.75;;;12.59;55.56
69035;BME280;56091;55.756;37.412;2023-04-02T11:01:46;98514.63;;;12.80;54.87
69035;BME280;56091;55.756;37.412;2023-04-02T11:06:50;98500.75;;;12.86;54.43
69035;BME280;56091;55.756;37.412;2023-04-02T11:11:55;98511.78;;;13.14;53.97
69035;BME280;56091;55.756;37.412;2023-04-02T11:16:59;98509.19;;;12.80;54.54
69035;BME280;56091;55.756;37.412;2023-04-02T11:22:13;98510.06;;;12.22;55.78
69035;BME280;56091;55.756;37.412;2023-04-02T11:27:19;98531.22;;;12.15;56.60
69035;BME280;56091;55.756;37.412;2023-04-02T11:37:44;98530.19;;;11.61;57.39
69035;BME280;56091;55.756;37.412;2023-04-02T11:42:47;98534.88;;;11.45;58.37
69035;BME280;56091;55.756;37.412;2023-04-02T12:03:57;98527.78;;;12.04;56.82
69035;BME280;56091;55.756;37.412;2023-04-02T12:09:14;98528.78;;;12.13;56.55
69035;BME280;56091;55.756;37.412;2023-04-02T12:19:49;98517.97;;;12.72;54.64
69035;BME280;56091;55.756;37.412;2023-04-02T12:24:54;98537.31;;;12.84;54.67
69035;BME280;56091;55.756;37.412;2023-04-02T12:35:33;98556.09;;;12.11;56.21
69035;BME280;56091;55.756;37.412;2023-04-02T12:40:35;98524.28;;;11.59;57.26
69035;BME280;56091;55.756;37.412;2023-04-02T12:45:36;98547.03;;;11.47;57.88
69035;BME280;56091;55.756;37.412;2023-04-02T12:50:38;98545.00;;;11.24;58.58
69035;BME280;56091;55.756;37.412;2023-04-02T12:55:46;98559.59;;;11.18;59.42
69035;BME280;56091;55.756;37.412;2023-04-02T13:06:24;98561.25;;;11.08;59.35
69035;BME280;56091;55.756;37.412;2023-04-02T13:11:37;98560.19;;;11.04;59.77
69035;BME280;56091;55.756;37.412;2023-04-02T13:16:38;98557.97;;;11.17;59.44
69035;BME280;56091;55.756;37.412;2023-04-02T13:21:40;98553.28;;;11.38;59.05
69035;BME280;56091;55.756;37.412;2023-04-02T13:26:40;98554.34;;;11.42;58.22
69035;BME280;56091;55.756;37.412;2023-04-02T13:31:42;98545.34;;;11.57;57.93
69035;BME280;56091;55.756;37.412;2023-04-02T13:36:44;98515.00;;;11.70;58.29
69035;BME280;56091;55.756;37.412;2023-04-02T13:41:49;98537.88;;;12.27;56.56
69035;BME280;56091;55.756;37.412;2023-04-02T13:46:51;98545.63;;;12.63;55.47
69035;BME280;56091;55.756;37.412;2023-04-02T13:51:54;98533.88;;;12.49;55.20
69035;BME280;56091;55.756;37.412;2023-04-02T13:56:59;98537.94;;;12.17;56.05
69035;BME280;56091;55.756;37.412;2023-04-02T14:02:04;98536.00;;;12.23;56.27
69035;BME280;56091;55.756;37.412;2023-04-02T14:29:43;98545.41;;;11.96;56.72
69035;BME280;56091;55.756;37.412;2023-04-02T14:50:39;98537.13;;;11.77;57.40
69035;BME280;56091;55.756;37.412;2023-04-02T14:55:43;98532.34;;;11.64;57.86
69035;BME280;56091;55.756;37.412;2023-04-02T15:01:02;98543.69;;;11.66;58.14
69035;BME280;56091;55.756;37.412;2023-04-02T15:06:09;98540.81;;;11.47;58.07
69035;BME280;56091;55.756;37.412;2023-04-02T15:11:26;98543.25;;;11.48;58.39
69035;BME280;56091;55.756;37.412;2023-04-02T15:16:32;98539.78;;;11.38;58.31
69035;BME280;56091;55.756;37.412;2023-04-02T15:22:25;98543.84;;;11.35;58.64
69035;BME280;56091;55.756;37.412;2023-04-02T15:32:42;98551.44;;;11.23;58.65
69035;BME280;56091;55.756;37.412;2023-04-02T15:38:00;98553.09;;;11.24;59.10
69035;BME280;56091;55.756;37.412;2023-04-02T16:14:35;98587.44;;;10.98;61.78
69035;BME280;56091;55.756;37.412;2023-04-02T16:19:45;98584.75;;;10.92;62.07
69035;BME280;56091;55.756;37.412;2023-04-02T16:25:05;98594.47;;;10.88;62.66
69035;BME280;56091;55.756;37.412;2023-04-02T16:30:42;98601.25;;;10.86;63.22
69035;BME280;56091;55.756;37.412;2023-04-02T16:36:34;98608.25;;;10.82;63.64
69035;BME280;56091;55.756;37.412;2023-04-02T16:42:08;98615.00;;;10.79;64.32
69035;BME280;56091;55.756;37.412;2023-04-02T16:57:31;98626.88;;;10.68;66.11
69035;BME280;56091;55.756;37.412;2023-04-02T17:13:42;98619.34;;;10.54;65.57
69035;BME280;56091;55.756;37.412;2023-04-02T17:18:48;98623.13;;;10.48;65.02
69035;BME280;56091;55.756;37.412;2023-04-02T17:24:01;98626.09;;;10.52;65.35
69035;BME280;56091;55.756;37.412;2023-04-02T17:29:07;98631.47;;;10.52;64.70
69035;BME280;56091;55.756;37.412;2023-04-02T17:34:14;98627.72;;;10.48;64.70
69035;BME280;56091;55.756;37.412;2023-04-02T17:39:32;98640.09;;;10.49;64.71
69035;BME280;56091;55.756;37.412;2023-04-02T18:32:46;98664.38;;;10.44;63.43
69035;BME280;56091;55.756;37.412;2023-04-02T18:48:56;98646.53;;;10.17;63.84
69035;BME280;56091;55.756;37.412;2023-04-02T19:04:30;98674.31;;;10.23;63.89
69035;BME280;56091;55.756;37.412;2023-04-02T19:09:41;98678.06;;;10.22;64.08
69035;BME280;56091;55.756;37.412;2023-04-02T19:14:47;98673.47;;;10.17;64.88
69035;BME280;56091;55.756;37.412;2023-04-02T19:31:07;98677.22;;;10.06;65.71
69035;BME280;56091;55.756;37.412;2023-04-02T19:41:51;98683.69;;;10.05;65.66
69035;BME280;56091;55.756;37.412;2023-04-02T19:46:53;98679.91;;;10.06;65.57
69035;BME280;56091;55.756;37.412;2023-04-02T19:51:54;98674.78;;;9.99;65.44
69035;BME280;56091;55.756;37.412;2023-04-02T19:56:55;98684.75;;;9.99;65.14
69035;BME280;56091;55.756;37.412;2023-04-02T20:01:56;98690.41;;;10.02;65.54
69035;BME280;56091;55.756;37.412;2023-04-02T20:06:58;98696.31;;;9.99;65.64
69035;BME280;56091;55.756;37.412;2023-04-02T20:12:01;98696.06;;;10.01;66.44
69035;BME280;56091;55.756;37.412;2023-04-02T20:17:02;98694.72;;;9.98;66.19
69035;BME280;56091;55.756;37.412;2023-04-02T20:22:03;98706.00;;;9.95;66.70
69035;BME280;56091;55.756;37.412;2023-04-02T20:27:04;98699.28;;;9.92;66.93
69035;BME280;56091;55.756;37.412;2023-04-02T20:32:04;98702.47;;;9.84;67.12
69035;BME280;56091;55.756;37.412;2023-04-02T20:37:05;98691.66;;;9.74;67.06
69035;BME280;56091;55.756;37.412;2023-04-02T20:42:07;98709.75;;;9.84;67.71
69035;BME280;56091;55.756;37.412;2023-04-02T20:47:08;98706.75;;;9.80;67.49
69035;BME280;56091;55.756;37.412;2023-04-02T20:52:10;98698.13;;;9.73;67.38
69035;BME280;56091;55.756;37.412;2023-04-02T20:57:11;98698.41;;;9.76;67.12
69035;BME280;56091;55.756;37.412;2023-04-02T21:02:13;98699.75;;;9.74;67.13
69035;BME280;56091;55.756;37.412;2023-04-02T21:07:13;98696.25;;;9.73;66.96
69035;BME280;56091;55.756;37.412;2023-04-02T21:12:15;98702.41;;;9.69;66.58
69035;BME280;56091;55.756;37.412;2023-04-02T21:17:16;98705.28;;;9.52;67.67
69035;BME280;56091;55.756;37.412;2023-04-02T21:22:17;98713.63;;;9.45;67.10
69035;BME280;56091;55.756;37.412;2023-04-02T21:27:18;98714.88;;;9.32;69.04
69035;BME280;56091;55.756;37.412;2023-04-02T21:32:21;98713.44;;;9.14;70.87
69035;BME280;56091;55.756;37.412;2023-04-02T21:37:22;98708.22;;;8.97;73.42
69035;BME280;56091;55.756;37.412;2023-04-02T21:42:23;98710.94;;;8.70;75.83
69035;BME280;56091;55.756;37.412;2023-04-02T21:47:24;98714.53;;;8.49;79.29
69035;BME280;56091;55.756;37.412;2023-04-02T21:52:24;98712.72;;;8.32;80.40
69035;BME280;56091;55.756;37.412;2023-04-02T21:57:25;98719.59;;;8.23;81.18
69035;BME280;56091;55.756;37.412;2023-04-02T22:02:27;98715.31;;;8.22;81.00
69035;BME280;56091;55.756;37.412;2023-04-02T22:07:27;98721.72;;;8.21;80.00
69035;BME280;56091;55.756;37.412;2023-04-02T22:12:28;98704.81;;;8.20;80.22
69035;BME280;56091;55.756;37.412;2023-04-02T22:17:29;98728.84;;;8.32;80.24
69035;BME280;56091;55.756;37.412;2023-04-02T22:22:31;98723.47;;;8.32;80.40
69035;BME280;56091;55.756;37.412;2023-04-02T22:27:32;98720.22;;;8.30;81.79
69035;BME280;56091;55.756;37.412;2023-04-02T22:32:34;98722.84;;;8.25;84.11
69035;BME280;56091;55.756;37.412;2023-04-02T22:37:35;98722.28;;;8.23;83.96
69035;BME280;56091;55.756;37.412;2023-04-02T22:42:36;98723.53;;;8.15;83.76
69035;BME280;56091;55.756;37.412;2023-04-02T22:47:37;98717.94;;;8.17;82.40
69035;BME280;56091;55.756;37.412;2023-04-02T22:52:38;98716.41;;;8.26;81.98
69035;BME280;56091;55.756;37.412;2023-04-02T22:57:40;98715.38;;;8.27;81.71
69035;BME280;56091;55.756;37.412;2023-04-02T23:02:41;98724.72;;;8.47;81.38
69035;BME280;56091;55.756;37.412;2023-04-02T23:07:41;98718.88;;;8.55;79.73
69035;BME280;56091;55.756;37.412;2023-04-02T23:12:42;98718.13;;;8.59;78.81
69035;BME280;56091;55.756;37.412;2023-04-02T23:17:48;98711.72;;;8.66;77.92
69035;BME280;56091;55.756;37.412;2023-04-02T23:22:49;98726.06;;;8.76;77.02
69035;BME280;56091;55.756;37.412;2023-04-02T23:27:51;98689.34;;;8.60;76.32
69035;BME280;56091;55.756;37.412;2023-04-02T23:32:52;98723.16;;;8.83;75.53
69035;BME280;56091;55.756;37.412;2023-04-02T23:37:52;98729.88;;;8.86;74.94
69035;BME280;56091;55.756;37.412;2023-04-02T23:42:53;98705.06;;;8.73;74.58
69035;BME280;56091;55.756;37.412;2023-04-02T23:47:54;98729.19;;;8.95;74.61
69035;BME280;56091;55.756;37.412;2023-04-02T23:52:55;98724.91;;;8.99;74.67
69035;BME280;56091;55.756;37.412;2023-04-02T23:57:56;98701.94;;;8.87;74.17
